sensor_id;sensor_type;location;lat;lon;timestamp;P1;durP1;ratioP1;P2;durP2;ratioP2
67595;SDS011;54410;48.694;8.934;2023-05-16T00:00:10;16.08;;;9.90;;
67595;SDS011;54410;48.694;8.934;2023-05-16T00:02:37;11.68;;;9.73;;
67595;SDS011;54410;48.694;8.934;2023-05-16T00:05:03;11.55;;;9.25;;
67595;SDS011;54410;48.694;8.934;2023-05-16T00:07:31;18.75;;;11.18;;
67595;SDS011;54410;48.694;8.934;2023-05-16T00:09:57;15.98;;;11.05;;
67595;SDS011;54410;48.694;8.934;2023-05-16T00:12:23;14.50;;;11.13;;
67595;SDS011;54410;48.694;8.934;2023-05-16T00:14:50;18.42;;;12.02;;
67595;SDS011;54410;48.694;8.934;2023-05-16T00:17:16;17.05;;;11.65;;
67595;SDS011;54410;48.694;8.934;2023-05-16T00:19:44;15.82;;;10.98;;
67595;SDS011;54410;48.694;8.934;2023-05-16T00:22:13;14.30;;;9.90;;
67595;SDS011;54410;48.694;8.934;2023-05-16T00:24:39;16.33;;;11.68;;
67595;SDS011;54410;48.694;8.934;2023-05-16T00:27:05;17.08;;;11.88;;
67595;SDS011;54410;48.694;8.934;2023-05-16T00:29:31;16.30;;;12.68;;
67595;SDS011;54410;48.694;8.934;2023-05-16T00:31:58;20.55;;;13.98;;
67595;SDS011;54410;48.694;8.934;2023-05-16T00:34:24;18.83;;;13.15;;
67595;SDS011;54410;48.694;8.934;2023-05-16T00:36:50;16.85;;;11.85;;
67595;SDS011;54410;48.694;8.934;2023-05-16T00:39:16;14.60;;;11.80;;
67595;SDS011;54410;48.694;8.934;2023-05-16T00:41:42;19.05;;;13.70;;
67595;SDS011;54410;48.694;8.934;2023-05-16T00:44:08;18.65;;;13.43;;
67595;SDS011;54410;48.694;8.934;2023-05-16T00:46:35;20.25;;;13.85;;
67595;SDS011;54410;48.694;8.934;2023-05-16T00:49:01;23.75;;;15.02;;
67595;SDS011;54410;48.694;8.934;2023-05-16T00:51:27;22.05;;;15.27;;
67595;SDS011;54410;48.694;8.934;2023-05-16T00:53:54;20.23;;;13.95;;
67595;SDS011;54410;48.694;8.934;2023-05-16T00:56:20;24.50;;;15.25;;
67595;SDS011;54410;48.694;8.934;2023-05-16T00:58:46;25.25;;;15.25;;
67595;SDS011;54410;48.694;8.934;2023-05-16T01:01:12;21.95;;;14.20;;
67595;SDS011;54410;48.694;8.934;2023-05-16T01:03:38;17.95;;;13.40;;
67595;SDS011;54410;48.694;8.934;2023-05-16T01:06:04;24.10;;;15.85;;
67595;SDS011;54410;48.694;8.934;2023-05-16T01:08:30;19.63;;;14.43;;
67595;SDS011;54410;48.694;8.934;2023-05-16T01:13:32;26.45;;;17.38;;
67595;SDS011;54410;48.694;8.934;2023-05-16T01:16:00;30.33;;;17.80;;
67595;SDS011;54410;48.694;8.934;2023-05-16T01:20:58;27.83;;;18.10;;
67595;SDS011;54410;48.694;8.934;2023-05-16T01:28:37;28.75;;;18.90;;
67595;SDS011;54410;48.694;8.934;2023-05-16T01:31:04;31.50;;;19.77;;
67595;SDS011;54410;48.694;8.934;2023-05-16T01:33:30;32.10;;;20.75;;
67595;SDS011;54410;48.694;8.934;2023-05-16T01:36:05;31.40;;;19.63;;
67595;SDS011;54410;48.694;8.934;2023-05-16T01:38:36;29.60;;;17.75;;
67595;SDS011;54410;48.694;8.934;2023-05-16T01:41:15;33.97;;;20.00;;
67595;SDS011;54410;48.694;8.934;2023-05-16T01:43:45;35.08;;;20.00;;
67595;SDS011;54410;48.694;8.934;2023-05-16T01:46:13;27.42;;;17.70;;
67595;SDS011;54410;48.694;8.934;2023-05-16T01:48:51;37.50;;;20.30;;
67595;SDS011;54410;48.694;8.934;2023-05-16T01:51:21;32.25;;;19.27;;
67595;SDS011;54410;48.694;8.934;2023-05-16T01:53:49;37.70;;;22.42;;
67595;SDS011;54410;48.694;8.934;2023-05-16T01:56:17;42.33;;;22.42;;
67595;SDS011;54410;48.694;8.934;2023-05-16T01:58:43;32.60;;;20.13;;
67595;SDS011;54410;48.694;8.934;2023-05-16T02:01:11;38.10;;;20.98;;
67595;SDS011;54410;48.694;8.934;2023-05-16T02:03:37;42.20;;;21.75;;
67595;SDS011;54410;48.694;8.934;2023-05-16T02:06:03;37.75;;;21.42;;
67595;SDS011;54410;48.694;8.934;2023-05-16T02:08:29;39.78;;;21.45;;
67595;SDS011;54410;48.694;8.934;2023-05-16T02:10:56;42.92;;;22.20;;
67595;SDS011;54410;48.694;8.934;2023-05-16T02:13:22;44.47;;;23.77;;
67595;SDS011;54410;48.694;8.934;2023-05-16T02:15:48;46.97;;;25.20;;
67595;SDS011;54410;48.694;8.934;2023-05-16T02:18:14;35.70;;;20.63;;
67595;SDS011;54410;48.694;8.934;2023-05-16T02:20:40;45.35;;;23.63;;
67595;SDS011;54410;48.694;8.934;2023-05-16T02:23:06;43.90;;;23.15;;
67595;SDS011;54410;48.694;8.934;2023-05-16T02:25:32;48.10;;;24.45;;
67595;SDS011;54410;48.694;8.934;2023-05-16T02:27:58;43.92;;;23.48;;
67595;SDS011;54410;48.694;8.934;2023-05-16T02:30:24;44.90;;;22.88;;
67595;SDS011;54410;48.694;8.934;2023-05-16T02:32:50;43.45;;;23.35;;
67595;SDS011;54410;48.694;8.934;2023-05-16T02:35:17;46.22;;;24.92;;
67595;SDS011;54410;48.694;8.934;2023-05-16T02:37:43;43.17;;;22.30;;
67595;SDS011;54410;48.694;8.934;2023-05-16T02:40:09;51.15;;;25.00;;
67595;SDS011;54410;48.694;8.934;2023-05-16T02:42:35;45.15;;;25.00;;
67595;SDS011;54410;48.694;8.934;2023-05-16T02:45:01;55.53;;;25.25;;
67595;SDS011;54410;48.694;8.934;2023-05-16T02:47:27;55.25;;;27.42;;
67595;SDS011;54410;48.694;8.934;2023-05-16T02:49:53;46.22;;;24.60;;
67595;SDS011;54410;48.694;8.934;2023-05-16T02:52:20;54.55;;;26.95;;
67595;SDS011;54410;48.694;8.934;2023-05-16T02:54:45;55.47;;;28.05;;
67595;SDS011;54410;48.694;8.934;2023-05-16T02:57:11;63.40;;;27.88;;
67595;SDS011;54410;48.694;8.934;2023-05-16T02:59:37;47.67;;;25.70;;
67595;SDS011;54410;48.694;8.934;2023-05-16T03:02:03;55.92;;;26.63;;
67595;SDS011;54410;48.694;8.934;2023-05-16T03:04:29;57.05;;;26.33;;
67595;SDS011;54410;48.694;8.934;2023-05-16T03:06:55;51.80;;;26.55;;
67595;SDS011;54410;48.694;8.934;2023-05-16T03:09:21;60.28;;;27.63;;
67595;SDS011;54410;48.694;8.934;2023-05-16T03:11:47;66.13;;;29.92;;
67595;SDS011;54410;48.694;8.934;2023-05-16T03:14:13;62.63;;;28.55;;
67595;SDS011;54410;48.694;8.934;2023-05-16T03:16:39;51.03;;;26.77;;
67595;SDS011;54410;48.694;8.934;2023-05-16T03:19:07;66.40;;;30.90;;
67595;SDS011;54410;48.694;8.934;2023-05-16T03:21:33;63.00;;;28.48;;
67595;SDS011;54410;48.694;8.934;2023-05-16T03:24:00;66.88;;;29.45;;
67595;SDS011;54410;48.694;8.934;2023-05-16T03:26:26;64.28;;;30.42;;
67595;SDS011;54410;48.694;8.934;2023-05-16T03:28:52;70.55;;;30.38;;
67595;SDS011;54410;48.694;8.934;2023-05-16T03:31:18;70.90;;;30.30;;
67595;SDS011;54410;48.694;8.934;2023-05-16T03:33:44;72.20;;;30.52;;
67595;SDS011;54410;48.694;8.934;2023-05-16T03:36:10;64.25;;;29.17;;
67595;SDS011;54410;48.694;8.934;2023-05-16T03:38:36;55.80;;;28.45;;
67595;SDS011;54410;48.694;8.934;2023-05-16T03:41:02;61.25;;;28.08;;
67595;SDS011;54410;48.694;8.934;2023-05-16T03:43:28;66.50;;;30.25;;
67595;SDS011;54410;48.694;8.934;2023-05-16T03:45:54;72.25;;;31.90;;
67595;SDS011;54410;48.694;8.934;2023-05-16T03:48:20;69.28;;;30.95;;
67595;SDS011;54410;48.694;8.934;2023-05-16T03:50:46;72.05;;;32.78;;
67595;SDS011;54410;48.694;8.934;2023-05-16T03:53:12;74.95;;;32.00;;
67595;SDS011;54410;48.694;8.934;2023-05-16T03:55:38;57.53;;;28.67;;
67595;SDS011;54410;48.694;8.934;2023-05-16T03:58:04;70.55;;;30.67;;
67595;SDS011;54410;48.694;8.934;2023-05-16T04:08:29;57.10;;;28.90;;
67595;SDS011;54410;48.694;8.934;2023-05-16T04:10:55;76.55;;;31.77;;
67595;SDS011;54410;48.694;8.934;2023-05-16T04:13:21;75.18;;;32.33;;
67595;SDS011;54410;48.694;8.934;2023-05-16T04:15:47;64.45;;;30.05;;
67595;SDS011;54410;48.694;8.934;2023-05-16T04:20:41;78.25;;;33.45;;
67595;SDS011;54410;48.694;8.934;2023-05-16T04:23:07;74.05;;;32.67;;
67595;SDS011;54410;48.694;8.934;2023-05-16T04:25:35;79.35;;;33.60;;
67595;SDS011;54410;48.694;8.934;2023-05-16T04:28:01;78.75;;;34.17;;
67595;SDS011;54410;48.694;8.934;2023-05-16T04:30:27;65.70;;;31.33;;
67595;SDS011;54410;48.694;8.934;2023-05-16T04:32:53;80.43;;;32.90;;
67595;SDS011;54410;48.694;8.934;2023-05-16T04:35:19;72.25;;;33.22;;
67595;SDS011;54410;48.694;8.934;2023-05-16T04:37:46;58.78;;;30.30;;
67595;SDS011;54410;48.694;8.934;2023-05-16T04:40:11;77.70;;;32.00;;
67595;SDS011;54410;48.694;8.934;2023-05-16T04:42:38;67.07;;;30.35;;
67595;SDS011;54410;48.694;8.934;2023-05-16T04:45:04;66.85;;;31.17;;
67595;SDS011;54410;48.694;8.934;2023-05-16T04:47:31;77.38;;;31.20;;
67595;SDS011;54410;48.694;8.934;2023-05-16T04:49:57;59.60;;;29.52;;
67595;SDS011;54410;48.694;8.934;2023-05-16T04:52:23;75.45;;;32.55;;
67595;SDS011;54410;48.694;8.934;2023-05-16T04:54:52;74.85;;;31.08;;
67595;SDS011;54410;48.694;8.934;2023-05-16T04:57:17;71.25;;;30.75;;
67595;SDS011;54410;48.694;8.934;2023-05-16T04:59:44;67.45;;;30.42;;
67595;SDS011;54410;48.694;8.934;2023-05-16T05:02:10;70.22;;;32.38;;
67595;SDS011;54410;48.694;8.934;2023-05-16T05:04:36;74.13;;;30.90;;
67595;SDS011;54410;48.694;8.934;2023-05-16T05:07:02;78.13;;;31.23;;
67595;SDS011;54410;48.694;8.934;2023-05-16T05:09:28;74.00;;;30.75;;
67595;SDS011;54410;48.694;8.934;2023-05-16T05:11:54;76.63;;;31.58;;
67595;SDS011;54410;48.694;8.934;2023-05-16T05:14:19;70.65;;;30.70;;
67595;SDS011;54410;48.694;8.934;2023-05-16T05:16:45;54.45;;;28.70;;
67595;SDS011;54410;48.694;8.934;2023-05-16T05:19:11;72.57;;;31.05;;
67595;SDS011;54410;48.694;8.934;2023-05-16T05:21:37;76.03;;;32.13;;
67595;SDS011;54410;48.694;8.934;2023-05-16T05:24:03;75.22;;;31.20;;
67595;SDS011;54410;48.694;8.934;2023-05-16T05:26:29;80.70;;;30.45;;
67595;SDS011;54410;48.694;8.934;2023-05-16T05:28:55;68.90;;;30.92;;
67595;SDS011;54410;48.694;8.934;2023-05-16T05:31:21;63.45;;;30.05;;
67595;SDS011;54410;48.694;8.934;2023-05-16T05:33:47;74.93;;;32.67;;
67595;SDS011;54410;48.694;8.934;2023-05-16T05:36:13;56.72;;;28.83;;
67595;SDS011;54410;48.694;8.934;2023-05-16T05:38:39;75.15;;;31.95;;
67595;SDS011;54410;48.694;8.934;2023-05-16T05:41:05;69.78;;;31.83;;
67595;SDS011;54410;48.694;8.934;2023-05-16T05:43:31;66.50;;;30.17;;
67595;SDS011;54410;48.694;8.934;2023-05-16T05:45:58;64.75;;;30.08;;
67595;SDS011;54410;48.694;8.934;2023-05-16T05:48:24;64.10;;;30.98;;
67595;SDS011;54410;48.694;8.934;2023-05-16T05:50:50;82.28;;;33.67;;
67595;SDS011;54410;48.694;8.934;2023-05-16T05:53:17;60.60;;;30.33;;
67595;SDS011;54410;48.694;8.934;2023-05-16T05:55:42;65.55;;;29.67;;
67595;SDS011;54410;48.694;8.934;2023-05-16T05:58:08;61.10;;;29.25;;
67595;SDS011;54410;48.694;8.934;2023-05-16T06:00:34;68.15;;;31.40;;
67595;SDS011;54410;48.694;8.934;2023-05-16T06:03:00;57.78;;;28.33;;
67595;SDS011;54410;48.694;8.934;2023-05-16T06:05:26;74.75;;;30.58;;
67595;SDS011;54410;48.694;8.934;2023-05-16T06:07:52;66.00;;;29.25;;
67595;SDS011;54410;48.694;8.934;2023-05-16T06:10:18;64.30;;;28.48;;
67595;SDS011;54410;48.694;8.934;2023-05-16T06:12:45;53.75;;;28.50;;
67595;SDS011;54410;48.694;8.934;2023-05-16T06:15:11;62.22;;;28.35;;
67595;SDS011;54410;48.694;8.934;2023-05-16T06:17:37;64.40;;;28.38;;
67595;SDS011;54410;48.694;8.934;2023-05-16T06:20:03;59.92;;;27.75;;
67595;SDS011;54410;48.694;8.934;2023-05-16T06:22:29;51.47;;;26.75;;
67595;SDS011;54410;48.694;8.934;2023-05-16T06:24:55;55.33;;;27.80;;
67595;SDS011;54410;48.694;8.934;2023-05-16T06:27:21;54.83;;;27.05;;
67595;SDS011;54410;48.694;8.934;2023-05-16T06:29:47;51.25;;;25.38;;
67595;SDS011;54410;48.694;8.934;2023-05-16T06:32:13;51.75;;;26.48;;
67595;SDS011;54410;48.694;8.934;2023-05-16T06:34:39;50.90;;;26.05;;
67595;SDS011;54410;48.694;8.934;2023-05-16T06:37:05;55.72;;;27.17;;
67595;SDS011;54410;48.694;8.934;2023-05-16T06:39:31;51.67;;;27.20;;
67595;SDS011;54410;48.694;8.934;2023-05-16T06:41:57;46.20;;;24.25;;
67595;SDS011;54410;48.694;8.934;2023-05-16T06:44:23;49.47;;;25.20;;
67595;SDS011;54410;48.694;8.934;2023-05-16T06:46:49;49.30;;;25.77;;
67595;SDS011;54410;48.694;8.934;2023-05-16T06:49:15;47.63;;;24.00;;
67595;SDS011;54410;48.694;8.934;2023-05-16T06:51:41;43.22;;;23.73;;
67595;SDS011;54410;48.694;8.934;2023-05-16T06:54:06;44.88;;;23.27;;
67595;SDS011;54410;48.694;8.934;2023-05-16T06:56:32;47.38;;;23.70;;
67595;SDS011;54410;48.694;8.934;2023-05-16T06:58:58;40.80;;;21.15;;
67595;SDS011;54410;48.694;8.934;2023-05-16T07:01:25;35.22;;;20.95;;
67595;SDS011;54410;48.694;8.934;2023-05-16T07:03:51;45.55;;;23.55;;
67595;SDS011;54410;48.694;8.934;2023-05-16T07:06:17;43.40;;;22.85;;
67595;SDS011;54410;48.694;8.934;2023-05-16T07:08:43;44.25;;;21.42;;
67595;SDS011;54410;48.694;8.934;2023-05-16T07:11:09;37.67;;;20.83;;
67595;SDS011;54410;48.694;8.934;2023-05-16T07:13:35;37.20;;;19.65;;
67595;SDS011;54410;48.694;8.934;2023-05-16T07:16:01;39.70;;;20.27;;
67595;SDS011;54410;48.694;8.934;2023-05-16T07:18:27;40.85;;;19.60;;
67595;SDS011;54410;48.694;8.934;2023-05-16T07:20:53;38.33;;;17.92;;
67595;SDS011;54410;48.694;8.934;2023-05-16T07:23:19;29.38;;;17.23;;
67595;SDS011;54410;48.694;8.934;2023-05-16T07:25:45;34.97;;;18.17;;
67595;SDS011;54410;48.694;8.934;2023-05-16T07:28:11;28.08;;;16.00;;
67595;SDS011;54410;48.694;8.934;2023-05-16T07:30:37;37.08;;;17.83;;
67595;SDS011;54410;48.694;8.934;2023-05-16T07:33:03;28.50;;;15.15;;
67595;SDS011;54410;48.694;8.934;2023-05-16T07:35:29;38.78;;;17.80;;
67595;SDS011;54410;48.694;8.934;2023-05-16T07:37:55;31.08;;;15.98;;
67595;SDS011;54410;48.694;8.934;2023-05-16T07:40:21;33.08;;;17.38;;
67595;SDS011;54410;48.694;8.934;2023-05-16T07:42:52;35.83;;;17.35;;
67595;SDS011;54410;48.694;8.934;2023-05-16T07:45:18;23.98;;;14.57;;
67595;SDS011;54410;48.694;8.934;2023-05-16T07:47:44;25.60;;;14.68;;
67595;SDS011;54410;48.694;8.934;2023-05-16T07:50:10;20.27;;;12.60;;
67595;SDS011;54410;48.694;8.934;2023-05-16T07:52:36;21.90;;;13.55;;
67595;SDS011;54410;48.694;8.934;2023-05-16T07:55:02;23.23;;;13.52;;
67595;SDS011;54410;48.694;8.934;2023-05-16T07:57:28;23.42;;;13.02;;
67595;SDS011;54410;48.694;8.934;2023-05-16T07:59:54;19.63;;;11.95;;
67595;SDS011;54410;48.694;8.934;2023-05-16T08:02:21;21.92;;;11.93;;
67595;SDS011;54410;48.694;8.934;2023-05-16T08:04:50;15.88;;;10.15;;
67595;SDS011;54410;48.694;8.934;2023-05-16T08:07:15;20.92;;;11.50;;
67595;SDS011;54410;48.694;8.934;2023-05-16T08:09:41;17.73;;;11.45;;
67595;SDS011;54410;48.694;8.934;2023-05-16T08:12:07;23.05;;;11.90;;
67595;SDS011;54410;48.694;8.934;2023-05-16T08:14:34;16.60;;;11.45;;
67595;SDS011;54410;48.694;8.934;2023-05-16T08:17:00;21.52;;;13.57;;
67595;SDS011;54410;48.694;8.934;2023-05-16T08:19:26;20.83;;;12.45;;
67595;SDS011;54410;48.694;8.934;2023-05-16T08:21:53;18.92;;;11.70;;
67595;SDS011;54410;48.694;8.934;2023-05-16T08:24:20;21.77;;;12.02;;
67595;SDS011;54410;48.694;8.934;2023-05-16T08:26:46;18.83;;;11.48;;
67595;SDS011;54410;48.694;8.934;2023-05-16T08:29:12;20.38;;;10.93;;
67595;SDS011;54410;48.694;8.934;2023-05-16T08:31:38;21.50;;;12.43;;
67595;SDS011;54410;48.694;8.934;2023-05-16T08:34:04;23.05;;;12.88;;
67595;SDS011;54410;48.694;8.934;2023-05-16T08:36:30;23.40;;;13.50;;
67595;SDS011;54410;48.694;8.934;2023-05-16T08:38:58;24.73;;;12.85;;
67595;SDS011;54410;48.694;8.934;2023-05-16T08:41:24;24.67;;;13.00;;
67595;SDS011;54410;48.694;8.934;2023-05-16T08:43:50;24.23;;;14.13;;
67595;SDS011;54410;48.694;8.934;2023-05-16T08:46:17;26.42;;;13.35;;
67595;SDS011;54410;48.694;8.934;2023-05-16T08:48:46;21.55;;;13.57;;
67595;SDS011;54410;48.694;8.934;2023-05-16T08:51:12;29.70;;;15.18;;
67595;SDS011;54410;48.694;8.934;2023-05-16T08:53:42;31.85;;;15.77;;
67595;SDS011;54410;48.694;8.934;2023-05-16T08:56:10;30.13;;;15.95;;
67595;SDS011;54410;48.694;8.934;2023-05-16T08:58:37;31.55;;;16.95;;
67595;SDS011;54410;48.694;8.934;2023-05-16T09:01:04;25.10;;;14.43;;
67595;SDS011;54410;48.694;8.934;2023-05-16T09:03:34;27.50;;;15.23;;
67595;SDS011;54410;48.694;8.934;2023-05-16T09:06:00;31.27;;;17.17;;
67595;SDS011;54410;48.694;8.934;2023-05-16T09:08:25;28.27;;;15.65;;
67595;SDS011;54410;48.694;8.934;2023-05-16T09:10:51;27.15;;;15.20;;
67595;SDS011;54410;48.694;8.934;2023-05-16T09:13:17;29.80;;;16.02;;
67595;SDS011;54410;48.694;8.934;2023-05-16T09:15:43;30.70;;;16.23;;
67595;SDS011;54410;48.694;8.934;2023-05-16T09:18:11;26.45;;;14.73;;
67595;SDS011;54410;48.694;8.934;2023-05-16T09:20:42;32.65;;;16.10;;
67595;SDS011;54410;48.694;8.934;2023-05-16T09:23:10;27.30;;;14.73;;
67595;SDS011;54410;48.694;8.934;2023-05-16T09:25:36;34.95;;;16.23;;
67595;SDS011;54410;48.694;8.934;2023-05-16T09:28:04;29.23;;;16.15;;
67595;SDS011;54410;48.694;8.934;2023-05-16T09:30:31;28.17;;;15.05;;
67595;SDS011;54410;48.694;8.934;2023-05-16T09:32:58;26.67;;;14.90;;
67595;SDS011;54410;48.694;8.934;2023-05-16T09:35:24;25.85;;;14.85;;
67595;SDS011;54410;48.694;8.934;2023-05-16T09:37:50;26.67;;;15.90;;
67595;SDS011;54410;48.694;8.934;2023-05-16T09:40:19;26.13;;;15.75;;
67595;SDS011;54410;48.694;8.934;2023-05-16T09:42:45;24.20;;;14.13;;
67595;SDS011;54410;48.694;8.934;2023-05-16T09:45:12;23.70;;;14.55;;
67595;SDS011;54410;48.694;8.934;2023-05-16T09:47:39;21.85;;;13.48;;
67595;SDS011;54410;48.694;8.934;2023-05-16T09:50:10;22.58;;;13.80;;
67595;SDS011;54410;48.694;8.934;2023-05-16T09:52:38;25.38;;;13.70;;
67595;SDS011;54410;48.694;8.934;2023-05-16T09:55:05;23.13;;;13.50;;
67595;SDS011;54410;48.694;8.934;2023-05-16T09:57:31;20.33;;;12.55;;
67595;SDS011;54410;48.694;8.934;2023-05-16T09:59:58;21.33;;;13.20;;
67595;SDS011;54410;48.694;8.934;2023-05-16T10:02:25;19.85;;;12.07;;
67595;SDS011;54410;48.694;8.934;2023-05-16T10:04:52;20.65;;;12.45;;
67595;SDS011;54410;48.694;8.934;2023-05-16T10:07:18;17.65;;;11.73;;
67595;SDS011;54410;48.694;8.934;2023-05-16T10:09:45;23.27;;;13.05;;
67595;SDS011;54410;48.694;8.934;2023-05-16T10:12:12;20.90;;;11.70;;
67595;SDS011;54410;48.694;8.934;2023-05-16T10:14:40;22.13;;;13.20;;
67595;SDS011;54410;48.694;8.934;2023-05-16T10:17:06;21.15;;;12.27;;
67595;SDS011;54410;48.694;8.934;2023-05-16T10:19:35;20.65;;;11.40;;
67595;SDS011;54410;48.694;8.934;2023-05-16T10:22:03;19.13;;;12.48;;
67595;SDS011;54410;48.694;8.934;2023-05-16T10:24:47;19.60;;;11.57;;
67595;SDS011;54410;48.694;8.934;2023-05-16T10:27:14;15.73;;;10.32;;
67595;SDS011;54410;48.694;8.934;2023-05-16T10:29:40;17.02;;;10.88;;
67595;SDS011;54410;48.694;8.934;2023-05-16T10:32:06;18.63;;;10.70;;
67595;SDS011;54410;48.694;8.934;2023-05-16T10:34:33;14.60;;;9.55;;
67595;SDS011;54410;48.694;8.934;2023-05-16T10:36:59;17.80;;;10.32;;
67595;SDS011;54410;48.694;8.934;2023-05-16T10:39:25;14.77;;;9.73;;
67595;SDS011;54410;48.694;8.934;2023-05-16T10:41:52;13.90;;;9.73;;
67595;SDS011;54410;48.694;8.934;2023-05-16T10:44:18;14.95;;;9.27;;
67595;SDS011;54410;48.694;8.934;2023-05-16T10:46:45;12.23;;;8.40;;
67595;SDS011;54410;48.694;8.934;2023-05-16T10:49:18;11.15;;;7.97;;
67595;SDS011;54410;48.694;8.934;2023-05-16T10:54:33;10.23;;;6.85;;
67595;SDS011;54410;48.694;8.934;2023-05-16T10:57:10;13.45;;;8.32;;
67595;SDS011;54410;48.694;8.934;2023-05-16T10:59:43;14.55;;;9.10;;
67595;SDS011;54410;48.694;8.934;2023-05-16T11:02:22;15.77;;;9.63;;
67595;SDS011;54410;48.694;8.934;2023-05-16T11:04:58;11.05;;;7.75;;
67595;SDS011;54410;48.694;8.934;2023-05-16T11:07:25;11.18;;;7.13;;
67595;SDS011;54410;48.694;8.934;2023-05-16T11:12:49;8.23;;;5.68;;
67595;SDS011;54410;48.694;8.934;2023-05-16T11:15:19;10.40;;;6.45;;
67595;SDS011;54410;48.694;8.934;2023-05-16T11:17:45;9.43;;;6.00;;
67595;SDS011;54410;48.694;8.934;2023-05-16T11:20:44;8.15;;;5.60;;
67595;SDS011;54410;48.694;8.934;2023-05-16T11:23:19;7.55;;;5.28;;
67595;SDS011;54410;48.694;8.934;2023-05-16T11:25:51;7.75;;;5.35;;
67595;SDS011;54410;48.694;8.934;2023-05-16T11:28:20;7.15;;;5.43;;
67595;SDS011;54410;48.694;8.934;2023-05-16T11:30:48;10.15;;;5.95;;
67595;SDS011;54410;48.694;8.934;2023-05-16T11:33:16;9.25;;;6.47;;
67595;SDS011;54410;48.694;8.934;2023-05-16T11:35:42;9.73;;;6.47;;
67595;SDS011;54410;48.694;8.934;2023-05-16T11:38:14;9.50;;;5.88;;
67595;SDS011;54410;48.694;8.934;2023-05-16T11:40:43;8.60;;;6.10;;
67595;SDS011;54410;48.694;8.934;2023-05-16T11:43:09;12.07;;;6.72;;
67595;SDS011;54410;48.694;8.934;2023-05-16T11:45:35;10.55;;;6.35;;
67595;SDS011;54410;48.694;8.934;2023-05-16T11:48:01;14.35;;;6.85;;
67595;SDS011;54410;48.694;8.934;2023-05-16T11:50:32;10.70;;;6.22;;
67595;SDS011;54410;48.694;8.934;2023-05-16T11:53:00;11.82;;;7.57;;
67595;SDS011;54410;48.694;8.934;2023-05-16T11:55:27;11.90;;;7.80;;
67595;SDS011;54410;48.694;8.934;2023-05-16T11:57:54;13.95;;;7.28;;
67595;SDS011;54410;48.694;8.934;2023-05-16T12:00:22;12.80;;;6.90;;
67595;SDS011;54410;48.694;8.934;2023-05-16T12:02:49;11.05;;;6.80;;
67595;SDS011;54410;48.694;8.934;2023-05-16T12:05:16;11.10;;;7.32;;
67595;SDS011;54410;48.694;8.934;2023-05-16T12:07:43;13.43;;;7.75;;
67595;SDS011;54410;48.694;8.934;2023-05-16T12:10:10;11.60;;;6.70;;
67595;SDS011;54410;48.694;8.934;2023-05-16T12:12:38;9.55;;;5.78;;
67595;SDS011;54410;48.694;8.934;2023-05-16T12:15:05;9.27;;;5.63;;
67595;SDS011;54410;48.694;8.934;2023-05-16T12:17:33;12.18;;;5.85;;
67595;SDS011;54410;48.694;8.934;2023-05-16T12:19:59;8.30;;;4.72;;
67595;SDS011;54410;48.694;8.934;2023-05-16T12:22:26;7.75;;;5.68;;
67595;SDS011;54410;48.694;8.934;2023-05-16T12:24:52;5.82;;;4.63;;
67595;SDS011;54410;48.694;8.934;2023-05-16T12:27:21;7.43;;;4.90;;
67595;SDS011;54410;48.694;8.934;2023-05-16T12:29:47;3.72;;;3.35;;
67595;SDS011;54410;48.694;8.934;2023-05-16T12:32:13;3.35;;;2.70;;
67595;SDS011;54410;48.694;8.934;2023-05-16T12:34:48;3.88;;;2.90;;
67595;SDS011;54410;48.694;8.934;2023-05-16T12:37:15;3.70;;;2.95;;
67595;SDS011;54410;48.694;8.934;2023-05-16T12:39:40;4.60;;;2.67;;
67595;SDS011;54410;48.694;8.934;2023-05-16T12:42:06;2.40;;;2.20;;
67595;SDS011;54410;48.694;8.934;2023-05-16T12:44:33;3.15;;;2.67;;
67595;SDS011;54410;48.694;8.934;2023-05-16T12:47:00;3.00;;;2.35;;
67595;SDS011;54410;48.694;8.934;2023-05-16T12:49:26;2.92;;;2.58;;
67595;SDS011;54410;48.694;8.934;2023-05-16T12:51:54;2.47;;;2.28;;
67595;SDS011;54410;48.694;8.934;2023-05-16T12:54:22;3.17;;;2.88;;
67595;SDS011;54410;48.694;8.934;2023-05-16T12:56:48;4.82;;;3.00;;
67595;SDS011;54410;48.694;8.934;2023-05-16T12:59:14;3.20;;;2.88;;
67595;SDS011;54410;48.694;8.934;2023-05-16T13:01:40;4.00;;;3.42;;
67595;SDS011;54410;48.694;8.934;2023-05-16T13:04:06;4.68;;;3.92;;
67595;SDS011;54410;48.694;8.934;2023-05-16T13:06:33;6.75;;;4.57;;
67595;SDS011;54410;48.694;8.934;2023-05-16T13:08:59;5.00;;;3.90;;
67595;SDS011;54410;48.694;8.934;2023-05-16T13:11:25;6.00;;;4.50;;
67595;SDS011;54410;48.694;8.934;2023-05-16T13:13:51;7.25;;;4.38;;
67595;SDS011;54410;48.694;8.934;2023-05-16T13:16:17;5.00;;;4.00;;
67595;SDS011;54410;48.694;8.934;2023-05-16T13:18:43;4.25;;;3.63;;
67595;SDS011;54410;48.694;8.934;2023-05-16T13:21:09;5.32;;;4.00;;
67595;SDS011;54410;48.694;8.934;2023-05-16T13:23:35;9.48;;;5.05;;
67595;SDS011;54410;48.694;8.934;2023-05-16T13:26:01;4.30;;;3.55;;
67595;SDS011;54410;48.694;8.934;2023-05-16T13:28:29;5.88;;;3.00;;
67595;SDS011;54410;48.694;8.934;2023-05-16T13:30:56;4.88;;;3.55;;
67595;SDS011;54410;48.694;8.934;2023-05-16T13:33:22;3.72;;;3.00;;
67595;SDS011;54410;48.694;8.934;2023-05-16T13:35:48;3.58;;;3.00;;
67595;SDS011;54410;48.694;8.934;2023-05-16T13:38:15;4.15;;;3.10;;
67595;SDS011;54410;48.694;8.934;2023-05-16T13:40:42;5.88;;;3.53;;
67595;SDS011;54410;48.694;8.934;2023-05-16T13:43:08;4.30;;;3.00;;
67595;SDS011;54410;48.694;8.934;2023-05-16T13:45:35;3.85;;;2.90;;
67595;SDS011;54410;48.694;8.934;2023-05-16T13:48:01;4.53;;;3.10;;
67595;SDS011;54410;48.694;8.934;2023-05-16T13:50:28;4.22;;;3.20;;
67595;SDS011;54410;48.694;8.934;2023-05-16T13:52:53;4.18;;;3.40;;
67595;SDS011;54410;48.694;8.934;2023-05-16T13:55:20;4.60;;;2.63;;
67595;SDS011;54410;48.694;8.934;2023-05-16T13:57:46;3.17;;;2.38;;
67595;SDS011;54410;48.694;8.934;2023-05-16T14:00:11;5.60;;;3.03;;
67595;SDS011;54410;48.694;8.934;2023-05-16T14:02:38;4.45;;;2.88;;
67595;SDS011;54410;48.694;8.934;2023-05-16T14:05:05;3.13;;;2.40;;
67595;SDS011;54410;48.694;8.934;2023-05-16T14:07:31;5.20;;;4.00;;
67595;SDS011;54410;48.694;8.934;2023-05-16T14:09:56;4.30;;;2.33;;
67595;SDS011;54410;48.694;8.934;2023-05-16T14:12:22;2.55;;;2.35;;
67595;SDS011;54410;48.694;8.934;2023-05-16T14:14:48;5.40;;;2.67;;
67595;SDS011;54410;48.694;8.934;2023-05-16T14:17:14;3.78;;;2.50;;
67595;SDS011;54410;48.694;8.934;2023-05-16T14:19:40;3.90;;;2.63;;
67595;SDS011;54410;48.694;8.934;2023-05-16T14:22:06;3.00;;;2.60;;
67595;SDS011;54410;48.694;8.934;2023-05-16T14:24:32;3.88;;;2.90;;
67595;SDS011;54410;48.694;8.934;2023-05-16T14:26:58;2.67;;;2.25;;
67595;SDS011;54410;48.694;8.934;2023-05-16T14:29:24;2.75;;;2.40;;
67595;SDS011;54410;48.694;8.934;2023-05-16T14:31:50;6.07;;;2.58;;
67595;SDS011;54410;48.694;8.934;2023-05-16T14:34:16;4.47;;;3.00;;
67595;SDS011;54410;48.694;8.934;2023-05-16T14:36:42;6.45;;;2.53;;
67595;SDS011;54410;48.694;8.934;2023-05-16T14:39:08;3.10;;;2.80;;
67595;SDS011;54410;48.694;8.934;2023-05-16T14:41:34;7.88;;;4.63;;
67595;SDS011;54410;48.694;8.934;2023-05-16T14:44:01;1.92;;;1.80;;
67595;SDS011;54410;48.694;8.934;2023-05-16T14:46:27;3.20;;;2.20;;
67595;SDS011;54410;48.694;8.934;2023-05-16T14:48:53;2.42;;;2.22;;
67595;SDS011;54410;48.694;8.934;2023-05-16T14:51:19;5.35;;;3.72;;